createdAt,value
2018-01-01T00:01:44.208Z,6.65
2018-01-01T00:04:12.570Z,2.60
2018-01-01T00:06:40.918Z,6.60
2018-01-01T00:09:09.235Z,2.80
2018-01-01T00:11:37.581Z,3.78
2018-01-01T00:14:05.898Z,5.70
2018-01-01T00:16:34.258Z,4.70
2018-01-01T00:19:02.595Z,6.22
2018-01-01T00:21:30.941Z,4.20
2018-01-01T00:23:59.293Z,3.73
2018-01-01T00:26:27.640Z,5.33
2018-01-01T00:28:55.957Z,5.22
2018-01-01T00:31:24.301Z,3.93
2018-01-01T00:33:52.629Z,3.80
2018-01-01T00:36:20.971Z,3.70
2018-01-01T00:38:49.320Z,3.40
2018-01-01T00:41:17.675Z,4.90
2018-01-01T00:43:46.582Z,5.22
2018-01-01T00:46:16.465Z,3.28
2018-01-01T00:48:44.798Z,5.20
2018-01-01T00:51:13.112Z,3.28
2018-01-01T00:53:41.446Z,2.90
2018-01-01T00:56:09.753Z,3.80
2018-01-01T00:58:38.084Z,1.95
2018-01-01T01:01:06.402Z,2.50
2018-01-01T01:03:35.540Z,2.70
2018-01-01T01:06:03.878Z,3.20
2018-01-01T01:08:32.221Z,3.17
2018-01-01T01:11:00.547Z,3.00
2018-01-01T01:13:28.901Z,3.40
2018-01-01T01:15:57.238Z,3.55
2018-01-01T01:18:25.580Z,3.80
2018-01-01T01:20:53.904Z,4.75
2018-01-01T01:23:22.239Z,5.60
2018-01-01T01:25:50.570Z,5.80
2018-01-01T01:28:20.614Z,5.57
2018-01-01T01:30:48.941Z,3.27
2018-01-01T01:33:18.041Z,2.20
2018-01-01T01:35:46.372Z,1.50
2018-01-01T01:38:14.714Z,1.20
2018-01-01T01:40:43.064Z,1.30
2018-01-01T01:43:11.415Z,1.20
2018-01-01T01:45:39.794Z,1.27
2018-01-01T01:48:08.114Z,1.00
2018-01-01T01:50:36.436Z,1.07
2018-01-01T01:53:04.811Z,1.50
2018-01-01T01:55:33.151Z,3.10
2018-01-01T01:58:01.476Z,7.83
2018-01-01T02:00:29.819Z,4.90
2018-01-01T02:02:58.162Z,1.20
2018-01-01T02:05:26.504Z,3.70
2018-01-01T02:07:54.844Z,0.60
2018-01-01T02:10:23.174Z,0.80
2018-01-01T02:12:51.497Z,1.13
2018-01-01T02:15:19.820Z,1.13
2018-01-01T02:17:48.160Z,0.90
2018-01-01T02:20:16.472Z,1.20
2018-01-01T02:22:44.798Z,0.80
2018-01-01T02:25:13.110Z,0.80
2018-01-01T02:27:41.452Z,1.60
2018-01-01T02:30:09.777Z,2.53
2018-01-01T02:32:38.105Z,1.23
2018-01-01T02:35:07.284Z,1.03
2018-01-01T02:37:36.378Z,0.80
2018-01-01T02:40:04.714Z,0.97
2018-01-01T02:42:33.063Z,1.07
2018-01-01T02:45:01.405Z,0.67
2018-01-01T02:47:30.494Z,0.80
2018-01-01T02:49:58.821Z,0.73
2018-01-01T02:52:27.159Z,0.90
2018-01-01T02:54:56.239Z,0.90
2018-01-01T02:57:24.565Z,0.95
2018-01-01T02:59:52.878Z,0.90
2018-01-01T03:02:21.208Z,0.73
2018-01-01T03:04:49.550Z,0.80
2018-01-01T03:07:17.890Z,1.00
2018-01-01T03:09:46.218Z,1.40
2018-01-01T03:12:14.559Z,0.97
2018-01-01T03:14:42.878Z,1.57
2018-01-01T03:17:12.002Z,1.23
2018-01-01T03:19:40.329Z,1.40
2018-01-01T03:22:08.664Z,1.05
2018-01-01T03:24:36.983Z,0.60
2018-01-01T03:27:05.315Z,0.50
2018-01-01T03:29:33.631Z,0.20
2018-01-01T03:32:01.978Z,0.30
2018-01-01T03:34:30.318Z,0.20
2018-01-01T03:36:58.670Z,0.30
2018-01-01T03:39:26.966Z,0.20
2018-01-01T03:41:56.026Z,0.20
2018-01-01T03:44:24.341Z,0.63
2018-01-01T03:46:53.425Z,0.67
2018-01-01T03:49:21.743Z,3.33
2018-01-01T03:51:50.046Z,0.90
2018-01-01T03:54:18.364Z,0.60
2018-01-01T03:56:47.450Z,1.03
2018-01-01T03:59:15.774Z,0.40
2018-01-01T04:01:44.103Z,0.80
2018-01-01T04:04:12.396Z,0.73
2018-01-01T04:06:40.741Z,0.60
2018-01-01T04:09:09.088Z,0.60
2018-01-01T04:11:37.405Z,0.60
2018-01-01T04:14:05.713Z,0.60
2018-01-01T04:16:34.033Z,0.40
2018-01-01T04:19:02.358Z,0.47
2018-01-01T04:21:30.678Z,4.00
2018-01-01T04:23:59.275Z,2.50
2018-01-01T04:26:27.599Z,1.07
2018-01-01T04:28:55.961Z,0.67
2018-01-01T04:31:24.288Z,0.60
2018-01-01T04:33:52.620Z,0.80
2018-01-01T04:36:23.685Z,0.85
2018-01-01T04:38:52.002Z,0.60
2018-01-01T04:41:20.320Z,0.40
2018-01-01T04:43:48.634Z,0.73
2018-01-01T04:46:16.955Z,0.73
2018-01-01T04:48:45.285Z,0.90
2018-01-01T04:51:13.597Z,0.40
2018-01-01T04:53:42.594Z,1.07
2018-01-01T04:56:10.962Z,0.40
2018-01-01T04:58:39.281Z,0.40
2018-01-01T05:01:07.684Z,0.40
2018-01-01T05:03:36.020Z,0.77
2018-01-01T05:06:04.388Z,0.87
2018-01-01T05:08:32.716Z,0.57
2018-01-01T05:11:01.048Z,0.70
2018-01-01T05:13:29.384Z,1.00
2018-01-01T05:15:57.696Z,0.40
2018-01-01T05:18:26.023Z,0.50
2018-01-01T05:20:54.356Z,0.73
2018-01-01T05:23:22.691Z,0.45
2018-01-01T05:25:51.003Z,0.40
2018-01-01T05:28:19.330Z,0.40
2018-01-01T05:30:47.652Z,0.50
2018-01-01T05:33:15.984Z,0.63
2018-01-01T05:35:45.374Z,0.50
2018-01-01T05:38:14.468Z,0.60
2018-01-01T05:40:42.816Z,0.47
2018-01-01T05:43:11.158Z,0.40
2018-01-01T05:45:39.874Z,0.40
2018-01-01T05:48:08.212Z,0.40
2018-01-01T05:50:36.535Z,0.73
2018-01-01T05:53:04.886Z,0.60
2018-01-01T05:55:33.245Z,0.60
2018-01-01T05:58:01.549Z,0.63
2018-01-01T06:00:30.647Z,0.30
2018-01-01T06:02:58.972Z,0.80
2018-01-01T06:05:27.310Z,0.43
2018-01-01T06:07:55.621Z,0.50
2018-01-01T06:10:23.959Z,0.70
2018-01-01T06:12:52.289Z,0.33
2018-01-01T06:15:20.633Z,0.60
2018-01-01T06:17:48.966Z,0.50
2018-01-01T06:20:17.278Z,0.67
2018-01-01T06:22:45.615Z,0.77
2018-01-01T06:25:13.933Z,1.13
2018-01-01T06:27:42.277Z,0.60
2018-01-01T06:30:10.606Z,0.60
2018-01-01T06:32:39.712Z,0.60
2018-01-01T06:35:08.048Z,0.73
2018-01-01T06:37:36.405Z,0.60
2018-01-01T06:40:04.714Z,0.60
2018-01-01T06:42:33.059Z,0.60
2018-01-01T06:45:01.432Z,0.70
2018-01-01T06:47:29.764Z,0.65
2018-01-01T06:49:58.122Z,0.27
2018-01-01T06:52:26.468Z,0.40
2018-01-01T06:54:54.774Z,0.30
2018-01-01T06:57:23.254Z,0.47
2018-01-01T06:59:52.357Z,0.57
2018-01-01T07:02:20.694Z,0.20
2018-01-01T07:04:49.006Z,0.47
2018-01-01T07:07:17.350Z,0.30
2018-01-01T07:09:45.687Z,0.50
2018-01-01T07:12:14.037Z,0.40
2018-01-01T07:14:42.373Z,0.60
2018-01-01T07:17:10.698Z,0.80
2018-01-01T07:19:39.038Z,0.40
2018-01-01T07:22:07.354Z,0.30
2018-01-01T07:24:35.683Z,0.30
2018-01-01T07:27:04.034Z,0.30
2018-01-01T07:29:32.354Z,0.20
2018-01-01T07:32:00.698Z,0.40
2018-01-01T07:34:29.785Z,0.20
2018-01-01T07:36:58.097Z,0.50
2018-01-01T07:39:26.416Z,0.33
2018-01-01T07:41:55.245Z,0.25
2018-01-01T07:44:23.576Z,0.30
2018-01-01T07:46:51.918Z,0.37
2018-01-01T07:49:20.251Z,0.23
2018-01-01T07:51:48.584Z,0.40
2018-01-01T07:54:16.930Z,0.20
2018-01-01T07:56:46.113Z,0.30
2018-01-01T07:59:14.437Z,0.23
2018-01-01T08:01:42.817Z,0.20
2018-01-01T08:04:11.182Z,0.20
2018-01-01T08:06:39.505Z,0.20
2018-01-01T08:09:07.841Z,0.20
2018-01-01T08:11:36.194Z,0.30
2018-01-01T08:14:04.506Z,0.20
2018-01-01T08:16:32.853Z,0.25
2018-01-01T08:19:01.188Z,0.40
2018-01-01T08:21:29.525Z,0.30
2018-01-01T08:23:58.628Z,0.30
2018-01-01T08:26:28.008Z,0.30
2018-01-01T08:28:56.348Z,0.30
2018-01-01T08:31:24.673Z,0.30
2018-01-01T08:33:53.270Z,0.43
2018-01-01T08:36:21.582Z,0.60
2018-01-01T08:38:49.933Z,0.83
2018-01-01T08:41:18.261Z,0.50
2018-01-01T08:43:47.368Z,0.30
2018-01-01T08:46:16.451Z,0.47
2018-01-01T08:48:44.788Z,0.37
2018-01-01T08:51:13.921Z,0.43
2018-01-01T08:53:42.234Z,0.40
2018-01-01T08:56:10.586Z,0.83
2018-01-01T08:58:38.933Z,0.30
2018-01-01T09:01:08.149Z,0.40
2018-01-01T09:03:37.262Z,0.47
2018-01-01T09:06:06.533Z,0.53
2018-01-01T09:08:34.860Z,0.80
2018-01-01T09:11:03.183Z,0.70
2018-01-01T09:13:31.525Z,0.50
2018-01-01T09:15:59.868Z,0.67
2018-01-01T09:18:28.620Z,0.53
2018-01-01T09:20:57.594Z,0.30
2018-01-01T09:23:25.936Z,0.33
2018-01-01T09:25:54.246Z,0.40
2018-01-01T09:28:22.575Z,0.43
2018-01-01T09:30:50.912Z,0.30
2018-01-01T09:33:19.238Z,0.60
2018-01-01T09:35:47.558Z,0.50
2018-01-01T09:38:15.902Z,0.67
2018-01-01T09:40:44.224Z,0.60
2018-01-01T09:43:12.541Z,0.90
2018-01-01T09:45:40.862Z,0.30
2018-01-01T09:48:09.241Z,0.57
2018-01-01T09:50:37.545Z,0.63
2018-01-01T09:53:05.854Z,0.30
2018-01-01T09:55:34.175Z,0.37
2018-01-01T09:58:02.515Z,0.60
2018-01-01T10:00:30.836Z,0.53
2018-01-01T10:02:59.186Z,0.70
2018-01-01T10:05:27.511Z,0.57
2018-01-01T10:07:55.832Z,0.53
2018-01-01T10:10:24.165Z,0.83
2018-01-01T10:12:52.481Z,0.30
2018-01-01T10:15:20.793Z,0.30
2018-01-01T10:17:49.113Z,0.53
2018-01-01T10:20:18.189Z,0.33
2018-01-01T10:22:46.528Z,0.47
2018-01-01T10:25:14.858Z,0.40
2018-01-01T10:27:43.204Z,0.90
2018-01-01T10:30:11.555Z,0.60
2018-01-01T10:32:39.920Z,0.60
2018-01-01T10:35:08.265Z,0.53
2018-01-01T10:37:36.599Z,0.43
2018-01-01T10:40:04.939Z,0.50
2018-01-01T10:42:34.031Z,0.60
2018-01-01T10:45:03.126Z,0.43
2018-01-01T10:47:32.224Z,0.50
2018-01-01T10:50:01.324Z,0.50
2018-01-01T10:52:29.658Z,0.55
2018-01-01T10:54:57.995Z,0.37
2018-01-01T10:57:26.316Z,0.47
2018-01-01T10:59:54.647Z,0.57
2018-01-01T11:02:22.984Z,0.50
2018-01-01T11:04:51.322Z,0.60
2018-01-01T11:07:19.658Z,0.70
2018-01-01T11:09:47.986Z,0.67
2018-01-01T11:12:16.301Z,0.80
2018-01-01T11:14:44.616Z,0.50
2018-01-01T11:17:12.940Z,0.50
2018-01-01T11:19:41.278Z,0.77
2018-01-01T11:22:09.584Z,0.50
2018-01-01T11:24:37.895Z,0.73
2018-01-01T11:27:06.227Z,0.50
2018-01-01T11:29:34.534Z,0.80
2018-01-01T11:32:02.874Z,0.37
2018-01-01T11:34:31.190Z,0.30
2018-01-01T11:36:59.548Z,0.53
2018-01-01T11:39:27.951Z,0.60
2018-01-01T11:41:56.276Z,0.70
2018-01-01T11:44:24.604Z,0.70
2018-01-01T11:46:53.051Z,0.50
2018-01-01T11:49:21.461Z,0.60
2018-01-01T11:51:49.810Z,1.57
2018-01-01T11:54:18.141Z,1.03
2018-01-01T11:56:47.262Z,0.77
2018-01-01T11:59:15.918Z,0.97
2018-01-01T12:01:44.269Z,0.87
2018-01-01T12:04:12.590Z,0.60
2018-01-01T12:06:41.777Z,0.70
2018-01-01T12:09:10.088Z,0.30
2018-01-01T12:11:38.406Z,0.50
2018-01-01T12:14:06.756Z,0.50
2018-01-01T12:16:35.092Z,0.33
2018-01-01T12:19:03.423Z,0.77
2018-01-01T12:21:31.778Z,0.77
2018-01-01T12:24:00.090Z,0.70
2018-01-01T12:26:28.416Z,0.40
2018-01-01T12:28:56.756Z,0.47
2018-01-01T12:31:25.099Z,0.60
2018-01-01T12:33:53.451Z,0.60
2018-01-01T12:36:21.800Z,0.63
2018-01-01T12:38:50.146Z,0.60
2018-01-01T12:41:18.462Z,0.30
2018-01-01T12:43:46.787Z,0.40
2018-01-01T12:46:15.132Z,0.83
2018-01-01T12:48:43.473Z,0.70
2018-01-01T12:51:11.830Z,0.80
2018-01-01T12:53:40.174Z,0.88
2018-01-01T12:56:08.480Z,1.20
2018-01-01T12:58:36.842Z,1.03
2018-01-01T13:01:05.154Z,1.30
2018-01-01T13:03:33.487Z,1.10
2018-01-01T13:06:01.784Z,1.37
2018-01-01T13:08:30.138Z,0.90
2018-01-01T13:10:58.528Z,1.13
2018-01-01T13:13:26.874Z,0.70
2018-01-01T13:15:55.211Z,0.87
2018-01-01T13:18:23.550Z,0.50
2018-01-01T13:20:51.863Z,0.80
2018-01-01T13:23:20.200Z,0.65
2018-01-01T13:25:48.516Z,1.00
2018-01-01T13:28:16.856Z,0.80
2018-01-01T13:30:45.652Z,0.70
2018-01-01T13:33:14.001Z,0.50
2018-01-01T13:35:42.338Z,0.50
2018-01-01T13:38:10.680Z,0.87
2018-01-01T13:40:38.989Z,1.30
2018-01-01T13:43:07.328Z,0.70
2018-01-01T13:45:35.634Z,1.00
2018-01-01T13:48:03.958Z,0.80
2018-01-01T13:50:32.340Z,0.60
2018-01-01T13:53:00.666Z,0.60
2018-01-01T13:55:29.012Z,0.60
2018-01-01T13:57:57.330Z,0.90
2018-01-01T14:00:25.676Z,0.50
2018-01-01T14:02:54.017Z,0.80
2018-01-01T14:05:23.135Z,0.60
2018-01-01T14:07:51.474Z,0.77
2018-01-01T14:10:20.626Z,0.50
2018-01-01T14:12:48.985Z,0.80
2018-01-01T14:15:17.320Z,0.87
2018-01-01T14:17:45.735Z,0.87
2018-01-01T14:20:14.077Z,0.60
2018-01-01T14:22:42.414Z,0.80
2018-01-01T14:25:10.757Z,0.63
2018-01-01T14:27:39.095Z,0.55
2018-01-01T14:30:07.392Z,0.80
2018-01-01T14:32:35.711Z,0.87
2018-01-01T14:35:04.123Z,0.93
2018-01-01T14:37:32.489Z,1.37
2018-01-01T14:40:02.122Z,1.27
2018-01-01T14:42:30.461Z,1.40
2018-01-01T14:44:58.868Z,1.00
2018-01-01T14:47:27.195Z,0.88
2018-01-01T14:49:55.532Z,1.10
2018-01-01T14:52:23.862Z,0.90
2018-01-01T14:54:52.208Z,1.20
2018-01-01T14:57:20.596Z,1.27
2018-01-01T14:59:48.975Z,2.07
2018-01-01T15:02:17.361Z,1.90
2018-01-01T15:04:45.739Z,1.37
2018-01-01T15:07:14.229Z,1.43
2018-01-01T15:09:42.562Z,1.00
2018-01-01T15:12:10.925Z,1.13
2018-01-01T15:14:39.604Z,1.53
2018-01-01T15:17:08.089Z,1.93
2018-01-01T15:19:36.494Z,2.20
2018-01-01T15:22:05.814Z,1.20
2018-01-01T15:24:34.505Z,0.97
2018-01-01T15:27:03.167Z,1.03
2018-01-01T15:29:31.851Z,0.70
2018-01-01T15:32:01.650Z,0.70
2018-01-01T15:34:30.527Z,0.97
2018-01-01T15:37:00.074Z,0.90
2018-01-01T15:39:28.969Z,0.90
2018-01-01T15:41:58.232Z,0.80
2018-01-01T15:44:27.752Z,0.60
2018-01-01T15:46:57.531Z,1.17
2018-01-01T15:49:27.345Z,1.43
2018-01-01T15:51:56.859Z,1.23
2018-01-01T15:54:26.779Z,1.20
2018-01-01T15:56:55.520Z,1.07
2018-01-01T15:59:25.012Z,1.83
2018-01-01T16:01:54.095Z,1.20
2018-01-01T16:04:23.027Z,1.43
2018-01-01T16:06:52.558Z,1.60
2018-01-01T16:09:22.022Z,1.30
2018-01-01T16:11:51.820Z,1.03
2018-01-01T16:14:21.859Z,1.30
2018-01-01T16:16:51.411Z,1.93
2018-01-01T16:19:20.926Z,1.57
2018-01-01T16:21:50.599Z,1.47
2018-01-01T16:24:20.367Z,3.20
2018-01-01T16:26:50.099Z,2.33
2018-01-01T16:29:19.729Z,1.40
2018-01-01T16:31:49.374Z,1.40
2018-01-01T16:34:19.147Z,1.10
2018-01-01T16:36:48.970Z,0.70
2018-01-01T16:39:18.728Z,1.00
2018-01-01T16:41:48.539Z,2.10
2018-01-01T16:44:18.361Z,1.20
2018-01-01T16:46:48.447Z,0.90
2018-01-01T16:49:18.247Z,2.03
2018-01-01T16:51:48.043Z,2.10
2018-01-01T16:54:17.881Z,2.00
2018-01-01T16:56:47.729Z,1.03
2018-01-01T16:59:18.285Z,1.10
2018-01-01T17:01:48.806Z,1.50
2018-01-01T17:04:19.327Z,1.53
2018-01-01T17:06:49.722Z,1.43
2018-01-01T17:09:19.402Z,1.70
2018-01-01T17:11:50.054Z,2.03
2018-01-01T17:14:20.400Z,1.73
2018-01-01T17:16:49.980Z,2.00
2018-01-01T17:19:19.803Z,1.60
2018-01-01T17:21:49.978Z,2.37
2018-01-01T17:24:20.507Z,1.40
2018-01-01T17:26:50.310Z,1.70
2018-01-01T17:29:20.148Z,1.57
2018-01-01T17:31:50.013Z,1.73
2018-01-01T17:34:20.059Z,1.10
2018-01-01T17:36:49.959Z,1.40
2018-01-01T17:39:20.786Z,1.40
2018-01-01T17:41:50.845Z,2.03
2018-01-01T17:44:20.782Z,1.13
2018-01-01T17:46:50.810Z,1.77
2018-01-01T17:49:20.835Z,1.87
2018-01-01T17:51:51.055Z,2.10
2018-01-01T17:54:21.040Z,1.83
2018-01-01T17:56:51.856Z,1.77
2018-01-01T17:59:22.580Z,2.10
2018-01-01T18:01:53.276Z,1.90
2018-01-01T18:04:24.436Z,1.40
2018-01-01T18:06:54.314Z,1.90
2018-01-01T18:09:24.147Z,2.53
2018-01-01T18:11:54.784Z,1.90
2018-01-01T18:14:24.560Z,1.20
2018-01-01T18:16:54.404Z,1.67
2018-01-01T18:19:24.685Z,1.57
2018-01-01T18:21:54.594Z,1.40
2018-01-01T18:24:24.418Z,1.80
2018-01-01T18:26:54.285Z,1.20
2018-01-01T18:29:24.077Z,1.40
2018-01-01T18:31:53.898Z,1.67
2018-01-01T18:34:23.804Z,1.73
2018-01-01T18:36:53.637Z,0.97
2018-01-01T18:39:24.250Z,1.10
2018-01-01T18:41:53.967Z,1.03
2018-01-01T18:44:23.852Z,1.10
2018-01-01T18:46:53.663Z,0.50
2018-01-01T18:49:23.547Z,0.30
2018-01-01T18:51:53.573Z,1.03
2018-01-01T18:54:23.367Z,0.80
2018-01-01T18:56:53.536Z,0.70
2018-01-01T18:59:23.427Z,0.70
2018-01-01T19:01:53.319Z,0.30
2018-01-01T19:04:23.211Z,0.40
2018-01-01T19:06:53.847Z,0.40
2018-01-01T19:09:23.680Z,0.53
2018-01-01T19:11:53.586Z,0.60
2018-01-01T19:14:23.434Z,0.80
2018-01-01T19:16:54.054Z,1.20
2018-01-01T19:19:23.979Z,0.80
2018-01-01T19:21:54.831Z,0.70
2018-01-01T19:24:24.702Z,0.70
2018-01-01T19:26:54.761Z,1.10
2018-01-01T19:29:25.340Z,1.10
2018-01-01T19:31:55.225Z,1.20
2018-01-01T19:34:25.061Z,0.73
2018-01-01T19:36:55.565Z,0.90
2018-01-01T19:39:25.375Z,1.00
2018-01-01T19:41:55.250Z,1.33
2018-01-01T19:44:25.154Z,1.03
2018-01-01T19:46:55.049Z,0.60
2018-01-01T19:49:24.912Z,0.83
2018-01-01T19:51:54.782Z,0.93
2018-01-01T19:54:25.028Z,0.60
2018-01-01T19:56:55.361Z,1.00
2018-01-01T19:59:25.999Z,1.00
2018-01-01T20:01:55.811Z,3.30
2018-01-01T20:04:25.685Z,0.30
2018-01-01T20:06:55.674Z,0.50
2018-01-01T20:09:25.510Z,0.40
2018-01-01T20:11:55.527Z,0.40
2018-01-01T20:14:25.423Z,0.50
2018-01-01T20:16:55.287Z,0.73
2018-01-01T20:19:25.138Z,0.70
2018-01-01T20:21:55.035Z,0.80
2018-01-01T20:24:24.843Z,0.77
2018-01-01T20:26:54.763Z,0.60
2018-01-01T20:29:24.642Z,0.30
2018-01-01T20:31:54.567Z,0.40
2018-01-01T20:34:24.390Z,0.50
2018-01-01T20:36:54.312Z,0.43
2018-01-01T20:39:24.161Z,0.60
2018-01-01T20:41:54.074Z,0.30
2018-01-01T20:44:23.965Z,0.30
2018-01-01T20:46:54.655Z,0.40
2018-01-01T20:49:25.395Z,0.40
2018-01-01T20:51:55.288Z,0.70
2018-01-01T20:54:25.139Z,1.40
2018-01-01T20:56:55.595Z,1.10
2018-01-01T20:59:25.469Z,0.50
2018-01-01T21:01:55.334Z,0.47
2018-01-01T21:04:26.121Z,0.40
2018-01-01T21:06:59.762Z,0.33
2018-01-01T21:09:30.750Z,0.80
2018-01-01T21:12:00.584Z,0.60
2018-01-01T21:14:30.548Z,0.80
2018-01-01T21:17:00.600Z,1.30
2018-01-01T21:19:30.477Z,0.90
2018-01-01T21:22:00.466Z,0.80
2018-01-01T21:24:30.446Z,0.90
2018-01-01T21:27:00.740Z,1.00
2018-01-01T21:29:30.598Z,1.10
2018-01-01T21:32:01.200Z,1.13
2018-01-01T21:34:31.985Z,0.80
2018-01-01T21:37:02.845Z,0.73
2018-01-01T21:39:32.785Z,1.63
2018-01-01T21:42:02.782Z,0.90
2018-01-01T21:44:33.949Z,1.00
2018-01-01T21:47:03.836Z,0.50
2018-01-01T21:49:33.928Z,0.37
2018-01-01T21:52:03.856Z,0.40
2018-01-01T21:54:34.541Z,0.50
2018-01-01T21:57:04.601Z,0.80
2018-01-01T21:59:34.478Z,0.30
2018-01-01T22:02:04.364Z,0.37
2018-01-01T22:04:34.263Z,0.33
2018-01-01T22:07:04.963Z,0.20
2018-01-01T22:09:34.794Z,0.50
2018-01-01T22:12:04.670Z,0.20
2018-01-01T22:14:34.580Z,0.90
2018-01-01T22:17:04.407Z,0.97
2018-01-01T22:19:34.271Z,0.20
2018-01-01T22:22:04.298Z,0.20
2018-01-01T22:24:34.085Z,0.20
2018-01-01T22:27:04.040Z,0.30
2018-01-01T22:29:33.913Z,0.20
2018-01-01T22:32:03.629Z,0.20
2018-01-01T22:34:34.327Z,0.57
2018-01-01T22:37:04.165Z,0.50
2018-01-01T22:39:34.809Z,0.20
2018-01-01T22:42:04.735Z,0.20
2018-01-01T22:44:34.567Z,0.20
2018-01-01T22:47:04.217Z,0.20
2018-01-01T22:49:33.908Z,0.10
2018-01-01T22:52:03.591Z,0.20
2018-01-01T22:54:33.354Z,0.20
2018-01-01T22:57:02.898Z,0.23
2018-01-01T22:59:32.384Z,0.10
2018-01-01T23:02:01.976Z,0.20
2018-01-01T23:04:30.570Z,0.10
2018-01-01T23:06:58.928Z,0.20
2018-01-01T23:09:27.365Z,0.10
2018-01-01T23:11:55.724Z,0.20
2018-01-01T23:14:24.154Z,0.27
2018-01-01T23:16:52.567Z,0.20
2018-01-01T23:19:20.928Z,0.20
2018-01-01T23:21:49.255Z,0.20
2018-01-01T23:24:17.603Z,0.20
2018-01-01T23:26:45.943Z,0.10
2018-01-01T23:29:14.274Z,0.20
2018-01-01T23:31:42.593Z,0.20
2018-01-01T23:34:10.906Z,0.20
2018-01-01T23:36:39.216Z,0.20
2018-01-01T23:39:07.512Z,1.80
2018-01-01T23:41:35.852Z,0.20
2018-01-01T23:44:04.961Z,0.20
2018-01-01T23:46:33.668Z,0.20
2018-01-01T23:49:02.008Z,0.20
2018-01-01T23:51:30.344Z,0.20
2018-01-01T23:53:58.663Z,0.20
2018-01-01T23:56:27.011Z,0.10
2018-01-01T23:58:56.084Z,0.30
